sensor_id;sensor_type;location;lat;lon;timestamp;P1;P2;P0
69349;PMS5003;64554;43.452;4.934;2024-03-08T00:00:59;7.00;7.00;4.00
69349;PMS5003;64554;43.452;4.934;2024-03-08T00:03:26;9.60;8.00;6.00
69349;PMS5003;64554;43.452;4.934;2024-03-08T00:05:53;7.00;5.75;4.75
69349;PMS5003;64554;43.452;4.934;2024-03-08T00:08:19;7.25;7.25;5.00
69349;PMS5003;64554;43.452;4.934;2024-03-08T00:10:46;5.80;4.80;3.80
69349;PMS5003;64554;43.452;4.934;2024-03-08T00:13:12;6.75;6.75;3.75
69349;PMS5003;64554;43.452;4.934;2024-03-08T00:15:39;8.00;8.00;5.00
69349;PMS5003;64554;43.452;4.934;2024-03-08T00:18:07;4.80;4.80;3.00
69349;PMS5003;64554;43.452;4.934;2024-03-08T00:20:34;6.80;6.80;4.00
69349;PMS5003;64554;43.452;4.934;2024-03-08T00:23:00;8.20;8.20;6.20
69349;PMS5003;64554;43.452;4.934;2024-03-08T00:25:27;7.80;7.80;5.00
69349;PMS5003;64554;43.452;4.934;2024-03-08T00:27:54;6.33;6.00;3.33
69349;PMS5003;64554;43.452;4.934;2024-03-08T00:30:23;9.00;9.00;7.00
69349;PMS5003;64554;43.452;4.934;2024-03-08T00:32:51;7.60;7.60;5.60
69349;PMS5003;64554;43.452;4.934;2024-03-08T00:35:17;7.80;7.80;6.00
69349;PMS5003;64554;43.452;4.934;2024-03-08T00:37:44;9.25;9.25;6.25
69349;PMS5003;64554;43.452;4.934;2024-03-08T00:40:13;8.25;7.25;5.25
69349;PMS5003;64554;43.452;4.934;2024-03-08T00:42:40;10.20;8.80;6.20
69349;PMS5003;64554;43.452;4.934;2024-03-08T00:45:07;9.00;9.00;7.00
69349;PMS5003;64554;43.452;4.934;2024-03-08T00:47:34;11.50;10.00;7.00
69349;PMS5003;64554;43.452;4.934;2024-03-08T00:50:00;12.40;9.80;7.40
69349;PMS5003;64554;43.452;4.934;2024-03-08T00:52:30;11.40;10.80;7.40
69349;PMS5003;64554;43.452;4.934;2024-03-08T00:54:56;8.25;8.25;5.00
69349;PMS5003;64554;43.452;4.934;2024-03-08T00:57:23;6.75;6.75;5.75
69349;PMS5003;64554;43.452;4.934;2024-03-08T00:59:49;13.00;10.00;7.00
69349;PMS5003;64554;43.452;4.934;2024-03-08T01:02:16;8.00;8.00;5.00
69349;PMS5003;64554;43.452;4.934;2024-03-08T01:04:45;7.80;6.60;4.20
69349;PMS5003;64554;43.452;4.934;2024-03-08T01:07:13;8.00;8.00;5.00
69349;PMS5003;64554;43.452;4.934;2024-03-08T01:09:40;9.75;9.25;4.00
69349;PMS5003;64554;43.452;4.934;2024-03-08T01:12:06;9.00;5.50;3.50
69349;PMS5003;64554;43.452;4.934;2024-03-08T01:14:33;5.40;5.40;4.40
69349;PMS5003;64554;43.452;4.934;2024-03-08T01:17:00;9.00;8.00;5.00
69349;PMS5003;64554;43.452;4.934;2024-03-08T01:19:26;7.00;7.00;4.00
69349;PMS5003;64554;43.452;4.934;2024-03-08T01:21:53;7.40;7.40;5.00
69349;PMS5003;64554;43.452;4.934;2024-03-08T01:24:22;9.60;6.60;4.40
69349;PMS5003;64554;43.452;4.934;2024-03-08T01:26:48;5.60;5.60;4.00
69349;PMS5003;64554;43.452;4.934;2024-03-08T01:29:15;5.50;4.50;2.50
69349;PMS5003;64554;43.452;4.934;2024-03-08T01:31:41;6.33;5.00;4.00
69349;PMS5003;64554;43.452;4.934;2024-03-08T01:34:07;6.80;5.20;3.80
69349;PMS5003;64554;43.452;4.934;2024-03-08T01:36:34;5.25;5.25;2.75
69349;PMS5003;64554;43.452;4.934;2024-03-08T01:39:03;5.60;5.60;5.00
69349;PMS5003;64554;43.452;4.934;2024-03-08T01:41:35;9.75;7.50;4.00
69349;PMS5003;64554;43.452;4.934;2024-03-08T01:44:02;6.00;6.00;4.00
69349;PMS5003;64554;43.452;4.934;2024-03-08T01:46:30;8.00;8.00;4.20
69349;PMS5003;64554;43.452;4.934;2024-03-08T01:48:57;7.33;7.00;4.67
69349;PMS5003;64554;43.452;4.934;2024-03-08T01:51:24;6.60;6.40;4.60
69349;PMS5003;64554;43.452;4.934;2024-03-08T01:53:51;5.60;4.60;3.00
69349;PMS5003;64554;43.452;4.934;2024-03-08T01:56:17;7.00;7.00;4.00
69349;PMS5003;64554;43.452;4.934;2024-03-08T01:58:44;7.80;6.80;4.00
69349;PMS5003;64554;43.452;4.934;2024-03-08T02:01:11;5.25;3.25;2.25
69349;PMS5003;64554;43.452;4.934;2024-03-08T02:03:38;7.00;6.00;4.00
69349;PMS5003;64554;43.452;4.934;2024-03-08T02:06:05;8.00;8.00;5.40
69349;PMS5003;64554;43.452;4.934;2024-03-08T02:08:34;7.80;7.80;5.00
69349;PMS5003;64554;43.452;4.934;2024-03-08T02:11:01;7.00;7.00;3.00
69349;PMS5003;64554;43.452;4.934;2024-03-08T02:13:28;6.60;5.00;3.40
69349;PMS5003;64554;43.452;4.934;2024-03-08T02:18:22;5.00;5.00;3.00
69349;PMS5003;64554;43.452;4.934;2024-03-08T02:23:15;4.60;4.60;3.60
69349;PMS5003;64554;43.452;4.934;2024-03-08T02:25:42;9.00;6.00;3.00
69349;PMS5003;64554;43.452;4.934;2024-03-08T02:28:09;5.00;4.00;2.00
69349;PMS5003;64554;43.452;4.934;2024-03-08T02:30:36;4.60;4.00;2.60
69349;PMS5003;64554;43.452;4.934;2024-03-08T02:33:02;4.00;4.00;3.00
69349;PMS5003;64554;43.452;4.934;2024-03-08T02:35:30;5.75;5.00;3.00
69349;PMS5003;64554;43.452;4.934;2024-03-08T02:37:56;4.00;4.00;2.00
69349;PMS5003;64554;43.452;4.934;2024-03-08T02:40:23;5.25;3.25;3.00
69349;PMS5003;64554;43.452;4.934;2024-03-08T02:42:49;3.00;2.00;2.00
69349;PMS5003;64554;43.452;4.934;2024-03-08T02:45:16;5.00;4.00;3.00
69349;PMS5003;64554;43.452;4.934;2024-03-08T02:47:42;7.00;5.40;2.00
69349;PMS5003;64554;43.452;4.934;2024-03-08T02:50:09;3.00;3.00;3.00
69349;PMS5003;64554;43.452;4.934;2024-03-08T02:52:35;3.50;3.50;3.00
69349;PMS5003;64554;43.452;4.934;2024-03-08T02:55:02;4.75;2.75;2.00
69349;PMS5003;64554;43.452;4.934;2024-03-08T02:57:29;5.00;4.00;3.00
69349;PMS5003;64554;43.452;4.934;2024-03-08T02:59:55;4.25;4.25;2.50
69349;PMS5003;64554;43.452;4.934;2024-03-08T03:02:22;5.00;5.00;3.00
69349;PMS5003;64554;43.452;4.934;2024-03-08T03:04:49;5.50;3.50;2.50
69349;PMS5003;64554;43.452;4.934;2024-03-08T03:07:16;6.00;4.50;2.00
69349;PMS5003;64554;43.452;4.934;2024-03-08T03:09:43;7.00;6.00;3.00
69349;PMS5003;64554;43.452;4.934;2024-03-08T03:12:09;6.00;5.50;3.50
69349;PMS5003;64554;43.452;4.934;2024-03-08T03:14:36;5.00;5.00;3.00
69349;PMS5003;64554;43.452;4.934;2024-03-08T03:17:04;5.40;5.40;2.40
69349;PMS5003;64554;43.452;4.934;2024-03-08T03:19:31;4.00;4.00;3.00
69349;PMS5003;64554;43.452;4.934;2024-03-08T03:21:57;5.00;5.00;3.00
69349;PMS5003;64554;43.452;4.934;2024-03-08T03:24:24;3.00;3.00;2.00
69349;PMS5003;64554;43.452;4.934;2024-03-08T03:26:50;7.00;5.00;3.00
69349;PMS5003;64554;43.452;4.934;2024-03-08T03:29:18;6.00;4.50;3.00
69349;PMS5003;64554;43.452;4.934;2024-03-08T03:31:44;5.00;5.00;3.00
69349;PMS5003;64554;43.452;4.934;2024-03-08T03:34:13;3.80;3.80;2.00
69349;PMS5003;64554;43.452;4.934;2024-03-08T03:36:39;2.00;2.00;2.00
69349;PMS5003;64554;43.452;4.934;2024-03-08T03:39:08;5.40;4.00;2.00
69349;PMS5003;64554;43.452;4.934;2024-03-08T03:41:42;4.00;3.00;1.00
69349;PMS5003;64554;43.452;4.934;2024-03-08T03:44:12;6.00;4.00;2.00
69349;PMS5003;64554;43.452;4.934;2024-03-08T03:46:41;6.00;4.00;3.00
69349;PMS5003;64554;43.452;4.934;2024-03-08T03:49:10;4.50;4.50;3.00
69349;PMS5003;64554;43.452;4.934;2024-03-08T03:51:37;4.80;4.80;2.80
69349;PMS5003;64554;43.452;4.934;2024-03-08T03:54:03;9.00;6.00;3.00
69349;PMS5003;64554;43.452;4.934;2024-03-08T03:56:30;13.50;10.50;4.00
69349;PMS5003;64554;43.452;4.934;2024-03-08T03:58:59;5.00;5.00;3.00
69349;PMS5003;64554;43.452;4.934;2024-03-08T04:01:25;3.33;3.33;1.00
69349;PMS5003;64554;43.452;4.934;2024-03-08T04:03:52;2.80;2.80;2.00
69349;PMS5003;64554;43.452;4.934;2024-03-08T04:06:18;4.00;4.00;2.00
69349;PMS5003;64554;43.452;4.934;2024-03-08T04:08:45;5.00;4.00;2.00
69349;PMS5003;64554;43.452;4.934;2024-03-08T04:11:11;3.00;3.00;2.00
69349;PMS5003;64554;43.452;4.934;2024-03-08T04:13:38;4.40;4.40;2.40
69349;PMS5003;64554;43.452;4.934;2024-03-08T04:16:04;4.00;4.00;3.00
69349;PMS5003;64554;43.452;4.934;2024-03-08T04:18:34;2.00;2.00;1.00
69349;PMS5003;64554;43.452;4.934;2024-03-08T04:21:02;2.00;2.00;1.00
69349;PMS5003;64554;43.452;4.934;2024-03-08T04:23:29;5.00;5.00;3.00
69349;PMS5003;64554;43.452;4.934;2024-03-08T04:25:55;2.00;2.00;1.75
69349;PMS5003;64554;43.452;4.934;2024-03-08T04:28:21;3.00;3.00;2.00
69349;PMS5003;64554;43.452;4.934;2024-03-08T04:30:48;4.00;4.00;2.00
69349;PMS5003;64554;43.452;4.934;2024-03-08T04:33:15;3.60;3.00;2.00
69349;PMS5003;64554;43.452;4.934;2024-03-08T04:35:43;3.25;3.25;2.00
69349;PMS5003;64554;43.452;4.934;2024-03-08T04:38:12;3.80;3.80;2.00
69349;PMS5003;64554;43.452;4.934;2024-03-08T04:40:38;4.00;4.00;2.00
69349;PMS5003;64554;43.452;4.934;2024-03-08T04:43:05;4.00;3.00;2.00
69349;PMS5003;64554;43.452;4.934;2024-03-08T04:45:32;5.50;4.00;2.00
69349;PMS5003;64554;43.452;4.934;2024-03-08T04:47:59;5.00;5.00;2.00
69349;PMS5003;64554;43.452;4.934;2024-03-08T04:50:25;5.00;3.00;2.00
69349;PMS5003;64554;43.452;4.934;2024-03-08T04:52:55;5.60;2.80;1.80
69349;PMS5003;64554;43.452;4.934;2024-03-08T04:55:22;4.00;3.00;2.00
69349;PMS5003;64554;43.452;4.934;2024-03-08T04:57:49;3.60;3.60;1.60
69349;PMS5003;64554;43.452;4.934;2024-03-08T05:00:15;4.00;4.00;2.00
69349;PMS5003;64554;43.452;4.934;2024-03-08T05:02:42;4.20;3.00;2.00
69349;PMS5003;64554;43.452;4.934;2024-03-08T05:05:08;3.60;3.60;2.60
69349;PMS5003;64554;43.452;4.934;2024-03-08T05:07:39;4.40;4.40;2.00
69349;PMS5003;64554;43.452;4.934;2024-03-08T05:10:06;7.00;6.00;4.00
69349;PMS5003;64554;43.452;4.934;2024-03-08T05:12:33;5.40;4.60;3.00
69349;PMS5003;64554;43.452;4.934;2024-03-08T05:14:59;5.00;5.00;3.00
69349;PMS5003;64554;43.452;4.934;2024-03-08T05:17:26;5.75;4.00;2.00
69349;PMS5003;64554;43.452;4.934;2024-03-08T05:19:54;6.20;5.60;3.60
69349;PMS5003;64554;43.452;4.934;2024-03-08T05:22:20;4.00;4.00;3.00
69349;PMS5003;64554;43.452;4.934;2024-03-08T05:24:47;4.00;4.00;3.00
69349;PMS5003;64554;43.452;4.934;2024-03-08T05:27:13;4.00;4.00;3.00
69349;PMS5003;64554;43.452;4.934;2024-03-08T05:29:40;5.00;5.00;3.00
69349;PMS5003;64554;43.452;4.934;2024-03-08T05:32:07;6.00;4.50;3.00
69349;PMS5003;64554;43.452;4.934;2024-03-08T05:34:33;3.00;3.00;2.20
69349;PMS5003;64554;43.452;4.934;2024-03-08T05:37:00;6.80;6.00;3.00
69349;PMS5003;64554;43.452;4.934;2024-03-08T05:39:27;6.00;4.00;3.00
69349;PMS5003;64554;43.452;4.934;2024-03-08T05:41:54;3.00;3.00;2.00
69349;PMS5003;64554;43.452;4.934;2024-03-08T05:44:21;4.20;4.20;2.60
69349;PMS5003;64554;43.452;4.934;2024-03-08T05:46:48;3.75;3.00;2.00
69349;PMS5003;64554;43.452;4.934;2024-03-08T05:49:14;3.75;3.75;2.75
69349;PMS5003;64554;43.452;4.934;2024-03-08T05:51:41;6.40;6.00;3.00
69349;PMS5003;64554;43.452;4.934;2024-03-08T05:54:08;4.50;4.50;3.00
69349;PMS5003;64554;43.452;4.934;2024-03-08T05:56:41;3.00;3.00;1.75
69349;PMS5003;64554;43.452;4.934;2024-03-08T05:59:10;3.20;3.20;2.00
69349;PMS5003;64554;43.452;4.934;2024-03-08T06:01:36;4.00;3.00;2.00
69349;PMS5003;64554;43.452;4.934;2024-03-08T06:04:03;6.00;4.60;2.00
69349;PMS5003;64554;43.452;4.934;2024-03-08T06:06:29;3.00;3.00;2.00
69349;PMS5003;64554;43.452;4.934;2024-03-08T06:08:56;3.50;3.50;2.00
69349;PMS5003;64554;43.452;4.934;2024-03-08T06:11:23;6.00;4.60;2.00
69349;PMS5003;64554;43.452;4.934;2024-03-08T06:13:49;3.60;3.60;1.80
69349;PMS5003;64554;43.452;4.934;2024-03-08T06:16:16;5.00;4.00;2.25
69349;PMS5003;64554;43.452;4.934;2024-03-08T06:18:42;4.50;3.50;2.50
69349;PMS5003;64554;43.452;4.934;2024-03-08T06:21:09;3.00;3.00;2.00
69349;PMS5003;64554;43.452;4.934;2024-03-08T06:23:39;2.00;2.00;1.75
69349;PMS5003;64554;43.452;4.934;2024-03-08T06:26:05;3.00;3.00;1.00
69349;PMS5003;64554;43.452;4.934;2024-03-08T06:28:32;4.00;2.40;1.60
69349;PMS5003;64554;43.452;4.934;2024-03-08T06:30:59;4.00;2.40;2.00
69349;PMS5003;64554;43.452;4.934;2024-03-08T06:33:25;3.00;3.00;2.00
69349;PMS5003;64554;43.452;4.934;2024-03-08T06:35:53;5.60;4.60;2.60
69349;PMS5003;64554;43.452;4.934;2024-03-08T06:38:20;1.50;1.00;1.00
69349;PMS5003;64554;43.452;4.934;2024-03-08T06:40:47;5.20;3.80;2.00
69349;PMS5003;64554;43.452;4.934;2024-03-08T06:43:14;3.00;3.00;1.40
69349;PMS5003;64554;43.452;4.934;2024-03-08T06:45:42;6.50;4.50;3.00
69349;PMS5003;64554;43.452;4.934;2024-03-08T06:48:17;5.00;4.00;2.00
69349;PMS5003;64554;43.452;4.934;2024-03-08T06:50:44;2.75;2.75;1.00
69349;PMS5003;64554;43.452;4.934;2024-03-08T06:53:11;5.00;3.00;2.50
69349;PMS5003;64554;43.452;4.934;2024-03-08T06:55:58;2.00;2.00;1.00
69349;PMS5003;64554;43.452;4.934;2024-03-08T06:58:24;1.80;1.80;0.80
69349;PMS5003;64554;43.452;4.934;2024-03-08T07:00:51;2.00;2.00;1.00
69349;PMS5003;64554;43.452;4.934;2024-03-08T07:03:24;2.00;2.00;1.00
69349;PMS5003;64554;43.452;4.934;2024-03-08T07:05:52;3.00;2.00;1.00
69349;PMS5003;64554;43.452;4.934;2024-03-08T07:08:19;2.25;2.25;0.25
69349;PMS5003;64554;43.452;4.934;2024-03-08T07:10:48;1.50;1.50;1.50
69349;PMS5003;64554;43.452;4.934;2024-03-08T07:13:15;4.00;4.00;3.00
69349;PMS5003;64554;43.452;4.934;2024-03-08T07:15:43;2.33;2.33;1.00
69349;PMS5003;64554;43.452;4.934;2024-03-08T07:18:10;2.00;2.00;1.00
69349;PMS5003;64554;43.452;4.934;2024-03-08T07:20:41;3.00;3.00;1.00
69349;PMS5003;64554;43.452;4.934;2024-03-08T07:23:08;6.00;6.00;3.80
69349;PMS5003;64554;43.452;4.934;2024-03-08T07:25:34;12.40;12.40;10.40
69349;PMS5003;64554;43.452;4.934;2024-03-08T07:28:01;2.25;2.25;0.75
69349;PMS5003;64554;43.452;4.934;2024-03-08T07:30:28;2.80;2.80;1.20
69349;PMS5003;64554;43.452;4.934;2024-03-08T07:33:10;20.40;19.40;11.80
69349;PMS5003;64554;43.452;4.934;2024-03-08T07:35:40;1.80;1.20;0.80
69349;PMS5003;64554;43.452;4.934;2024-03-08T07:38:07;3.00;3.00;2.00
69349;PMS5003;64554;43.452;4.934;2024-03-08T07:40:35;3.00;3.00;3.00
69349;PMS5003;64554;43.452;4.934;2024-03-08T07:43:03;3.00;2.75;2.00
69349;PMS5003;64554;43.452;4.934;2024-03-08T07:45:29;2.00;2.00;1.25
69349;PMS5003;64554;43.452;4.934;2024-03-08T07:47:56;5.75;5.75;4.00
69349;PMS5003;64554;43.452;4.934;2024-03-08T07:50:23;5.00;2.00;1.00
69349;PMS5003;64554;43.452;4.934;2024-03-08T07:52:50;3.60;2.60;2.00
69349;PMS5003;64554;43.452;4.934;2024-03-08T07:55:17;2.00;2.00;1.00
69349;PMS5003;64554;43.452;4.934;2024-03-08T07:57:43;3.00;3.00;0.00
69349;PMS5003;64554;43.452;4.934;2024-03-08T08:00:10;3.00;1.50;0.00
69349;PMS5003;64554;43.452;4.934;2024-03-08T08:02:37;3.00;2.00;1.00
69349;PMS5003;64554;43.452;4.934;2024-03-08T08:05:06;4.00;4.00;3.00
69349;PMS5003;64554;43.452;4.934;2024-03-08T08:07:32;3.00;1.00;1.00
69349;PMS5003;64554;43.452;4.934;2024-03-08T08:09:59;3.00;3.00;1.00
69349;PMS5003;64554;43.452;4.934;2024-03-08T08:12:25;1.00;1.00;0.80
69349;PMS5003;64554;43.452;4.934;2024-03-08T08:14:54;3.75;1.25;0.75
69349;PMS5003;64554;43.452;4.934;2024-03-08T08:17:21;1.00;1.00;0.20
69349;PMS5003;64554;43.452;4.934;2024-03-08T08:19:48;4.00;4.00;1.00
69349;PMS5003;64554;43.452;4.934;2024-03-08T08:22:15;2.00;1.00;0.00
69349;PMS5003;64554;43.452;4.934;2024-03-08T08:24:41;1.00;1.00;0.75
69349;PMS5003;64554;43.452;4.934;2024-03-08T08:27:07;3.60;2.40;2.00
69349;PMS5003;64554;43.452;4.934;2024-03-08T08:29:35;4.50;1.50;0.50
69349;PMS5003;64554;43.452;4.934;2024-03-08T08:32:02;4.50;2.00;1.00
69349;PMS5003;64554;43.452;4.934;2024-03-08T08:34:29;2.00;2.00;1.00
69349;PMS5003;64554;43.452;4.934;2024-03-08T08:36:56;1.00;1.00;1.00
69349;PMS5003;64554;43.452;4.934;2024-03-08T08:39:23;2.00;2.00;1.00
69349;PMS5003;64554;43.452;4.934;2024-03-08T08:41:49;1.80;1.80;0.00
69349;PMS5003;64554;43.452;4.934;2024-03-08T08:44:17;1.00;1.00;1.00
69349;PMS5003;64554;43.452;4.934;2024-03-08T08:46:43;4.00;1.00;0.00
69349;PMS5003;64554;43.452;4.934;2024-03-08T08:49:10;1.00;1.00;1.00
69349;PMS5003;64554;43.452;4.934;2024-03-08T08:51:37;1.60;1.60;1.00
69349;PMS5003;64554;43.452;4.934;2024-03-08T08:54:04;4.00;1.50;0.50
69349;PMS5003;64554;43.452;4.934;2024-03-08T08:56:36;1.80;1.00;1.00
69349;PMS5003;64554;43.452;4.934;2024-03-08T08:59:03;1.20;0.40;0.00
69349;PMS5003;64554;43.452;4.934;2024-03-08T09:01:31;3.00;3.00;1.00
69349;PMS5003;64554;43.452;4.934;2024-03-08T09:03:57;2.00;1.00;1.00
69349;PMS5003;64554;43.452;4.934;2024-03-08T09:06:24;2.00;2.00;1.33
69349;PMS5003;64554;43.452;4.934;2024-03-08T09:08:51;3.00;2.00;0.00
69349;PMS5003;64554;43.452;4.934;2024-03-08T09:11:17;2.00;2.00;1.00
69349;PMS5003;64554;43.452;4.934;2024-03-08T09:13:44;1.00;1.00;0.00
69349;PMS5003;64554;43.452;4.934;2024-03-08T09:16:12;2.00;2.00;1.40
69349;PMS5003;64554;43.452;4.934;2024-03-08T09:18:41;2.20;0.20;0.20
69349;PMS5003;64554;43.452;4.934;2024-03-08T09:21:08;3.40;2.00;1.00
69349;PMS5003;64554;43.452;4.934;2024-03-08T09:23:36;3.00;2.00;1.00
69349;PMS5003;64554;43.452;4.934;2024-03-08T09:26:02;1.00;1.00;0.00
69349;PMS5003;64554;43.452;4.934;2024-03-08T09:28:35;3.00;1.00;0.00
69349;PMS5003;64554;43.452;4.934;2024-03-08T09:31:02;2.25;1.25;0.25
69349;PMS5003;64554;43.452;4.934;2024-03-08T09:33:28;0.60;0.60;0.20
69349;PMS5003;64554;43.452;4.934;2024-03-08T09:35:55;5.00;4.00;2.00
69349;PMS5003;64554;43.452;4.934;2024-03-08T09:38:25;3.00;3.00;1.00
69349;PMS5003;64554;43.452;4.934;2024-03-08T09:40:51;2.00;2.00;1.00
69349;PMS5003;64554;43.452;4.934;2024-03-08T09:43:19;1.50;1.00;0.00
69349;PMS5003;64554;43.452;4.934;2024-03-08T09:45:48;2.00;1.00;0.50
69349;PMS5003;64554;43.452;4.934;2024-03-08T09:48:16;2.80;1.60;1.00
69349;PMS5003;64554;43.452;4.934;2024-03-08T09:50:45;2.20;2.20;1.80
69349;PMS5003;64554;43.452;4.934;2024-03-08T09:53:12;1.40;1.40;1.00
69349;PMS5003;64554;43.452;4.934;2024-03-08T09:55:38;4.50;1.50;0.50
69349;PMS5003;64554;43.452;4.934;2024-03-08T09:58:12;2.40;2.40;1.40
69349;PMS5003;64554;43.452;4.934;2024-03-08T10:00:59;1.50;1.50;0.50
69349;PMS5003;64554;43.452;4.934;2024-03-08T10:03:28;1.80;1.80;1.20
69349;PMS5003;64554;43.452;4.934;2024-03-08T10:05:56;2.50;0.50;0.00
69349;PMS5003;64554;43.452;4.934;2024-03-08T10:08:29;5.00;2.00;1.00
69349;PMS5003;64554;43.452;4.934;2024-03-08T10:10:56;2.00;2.00;1.60
69349;PMS5003;64554;43.452;4.934;2024-03-08T10:13:24;3.20;3.20;1.00
69349;PMS5003;64554;43.452;4.934;2024-03-08T10:15:52;7.00;1.00;0.00
69349;PMS5003;64554;43.452;4.934;2024-03-08T10:18:19;2.50;2.50;1.00
69349;PMS5003;64554;43.452;4.934;2024-03-08T10:20:45;0.50;0.50;0.00
69349;PMS5003;64554;43.452;4.934;2024-03-08T10:23:12;3.00;1.00;1.00
69349;PMS5003;64554;43.452;4.934;2024-03-08T10:25:39;2.00;2.00;1.00
69349;PMS5003;64554;43.452;4.934;2024-03-08T10:28:06;0.40;0.40;0.40
69349;PMS5003;64554;43.452;4.934;2024-03-08T10:30:32;3.40;1.00;1.00
69349;PMS5003;64554;43.452;4.934;2024-03-08T10:32:59;1.40;1.40;1.00
69349;PMS5003;64554;43.452;4.934;2024-03-08T10:35:26;1.00;1.00;0.25
69349;PMS5003;64554;43.452;4.934;2024-03-08T10:37:53;3.00;3.00;1.00
69349;PMS5003;64554;43.452;4.934;2024-03-08T10:40:27;3.20;2.00;1.00
69349;PMS5003;64554;43.452;4.934;2024-03-08T10:42:57;6.00;6.00;1.00
69349;PMS5003;64554;43.452;4.934;2024-03-08T10:47:54;3.40;2.00;0.60
69349;PMS5003;64554;43.452;4.934;2024-03-08T10:50:26;4.00;4.00;2.40
69349;PMS5003;64554;43.452;4.934;2024-03-08T10:52:53;4.40;4.40;2.40
69349;PMS5003;64554;43.452;4.934;2024-03-08T10:55:20;7.00;6.00;3.75
69349;PMS5003;64554;43.452;4.934;2024-03-08T10:57:47;3.80;2.60;1.40
69349;PMS5003;64554;43.452;4.934;2024-03-08T11:00:14;5.00;5.00;2.40
69349;PMS5003;64554;43.452;4.934;2024-03-08T11:02:44;1.25;1.00;1.00
69349;PMS5003;64554;43.452;4.934;2024-03-08T11:05:10;0.80;0.80;0.20
69349;PMS5003;64554;43.452;4.934;2024-03-08T11:07:40;3.00;3.00;2.00
69349;PMS5003;64554;43.452;4.934;2024-03-08T11:10:18;2.00;1.00;1.00
69349;PMS5003;64554;43.452;4.934;2024-03-08T11:12:46;1.80;1.80;0.40
69349;PMS5003;64554;43.452;4.934;2024-03-08T11:15:14;3.00;2.00;1.00
69349;PMS5003;64554;43.452;4.934;2024-03-08T11:17:44;2.60;2.60;1.00
69349;PMS5003;64554;43.452;4.934;2024-03-08T11:20:15;3.20;1.00;0.00
69349;PMS5003;64554;43.452;4.934;2024-03-08T11:22:47;2.80;1.80;0.80
69349;PMS5003;64554;43.452;4.934;2024-03-08T11:28:06;2.60;2.00;1.00
69349;PMS5003;64554;43.452;4.934;2024-03-08T11:30:33;0.50;0.50;0.00
69349;PMS5003;64554;43.452;4.934;2024-03-08T11:33:02;3.50;2.50;0.50
69349;PMS5003;64554;43.452;4.934;2024-03-08T11:35:29;2.00;1.40;0.40
69349;PMS5003;64554;43.452;4.934;2024-03-08T11:37:59;2.40;2.40;1.80
69349;PMS5003;64554;43.452;4.934;2024-03-08T11:40:28;3.75;2.75;2.00
69349;PMS5003;64554;43.452;4.934;2024-03-08T11:42:55;3.75;2.25;1.25
69349;PMS5003;64554;43.452;4.934;2024-03-08T11:45:22;2.75;2.75;1.75
69349;PMS5003;64554;43.452;4.934;2024-03-08T11:47:48;5.40;4.00;3.00
69349;PMS5003;64554;43.452;4.934;2024-03-08T11:50:16;2.00;2.00;1.00
69349;PMS5003;64554;43.452;4.934;2024-03-08T11:52:45;4.00;3.00;1.00
69349;PMS5003;64554;43.452;4.934;2024-03-08T11:55:12;3.00;1.00;0.00
69349;PMS5003;64554;43.452;4.934;2024-03-08T11:57:39;2.00;2.00;0.00
69349;PMS5003;64554;43.452;4.934;2024-03-08T12:00:06;2.00;2.00;1.00
69349;PMS5003;64554;43.452;4.934;2024-03-08T12:02:33;2.40;1.40;0.40
69349;PMS5003;64554;43.452;4.934;2024-03-08T12:05:04;2.00;2.00;0.00
69349;PMS5003;64554;43.452;4.934;2024-03-08T12:07:32;2.40;2.20;0.20
69349;PMS5003;64554;43.452;4.934;2024-03-08T12:10:18;2.50;2.50;1.00
69349;PMS5003;64554;43.452;4.934;2024-03-08T12:12:48;2.00;2.00;1.00
69349;PMS5003;64554;43.452;4.934;2024-03-08T12:15:15;1.00;1.00;1.00
69349;PMS5003;64554;43.452;4.934;2024-03-08T12:17:42;4.20;3.00;2.00
69349;PMS5003;64554;43.452;4.934;2024-03-08T12:20:27;3.50;2.00;1.00
69349;PMS5003;64554;43.452;4.934;2024-03-08T12:22:57;4.80;2.80;1.80
69349;PMS5003;64554;43.452;4.934;2024-03-08T12:25:30;6.20;5.00;1.80
69349;PMS5003;64554;43.452;4.934;2024-03-08T12:28:06;4.00;3.00;3.00
69349;PMS5003;64554;43.452;4.934;2024-03-08T12:30:44;11.75;9.25;3.75
69349;PMS5003;64554;43.452;4.934;2024-03-08T12:33:11;2.00;2.00;1.50
69349;PMS5003;64554;43.452;4.934;2024-03-08T12:35:39;3.00;3.00;1.00
69349;PMS5003;64554;43.452;4.934;2024-03-08T12:38:05;4.50;3.50;1.75
69349;PMS5003;64554;43.452;4.934;2024-03-08T12:40:33;3.00;3.00;2.00
69349;PMS5003;64554;43.452;4.934;2024-03-08T12:43:01;5.00;3.00;2.00
69349;PMS5003;64554;43.452;4.934;2024-03-08T12:45:29;5.50;1.00;1.00
69349;PMS5003;64554;43.452;4.934;2024-03-08T12:47:55;3.20;2.00;1.00
69349;PMS5003;64554;43.452;4.934;2024-03-08T12:50:22;4.00;4.00;2.00
69349;PMS5003;64554;43.452;4.934;2024-03-08T12:52:49;6.00;3.00;1.67
69349;PMS5003;64554;43.452;4.934;2024-03-08T12:55:19;3.00;3.00;1.25
69349;PMS5003;64554;43.452;4.934;2024-03-08T12:57:46;1.20;1.00;0.20
69349;PMS5003;64554;43.452;4.934;2024-03-08T13:00:14;4.00;2.60;1.60
69349;PMS5003;64554;43.452;4.934;2024-03-08T13:02:48;1.00;1.00;1.00
69349;PMS5003;64554;43.452;4.934;2024-03-08T13:05:16;4.00;3.50;1.00
69349;PMS5003;64554;43.452;4.934;2024-03-08T13:07:43;5.00;4.00;2.25
69349;PMS5003;64554;43.452;4.934;2024-03-08T13:10:13;3.20;3.20;1.40
69349;PMS5003;64554;43.452;4.934;2024-03-08T13:12:42;4.67;2.00;0.67
69349;PMS5003;64554;43.452;4.934;2024-03-08T13:15:09;2.00;2.00;2.00
69349;PMS5003;64554;43.452;4.934;2024-03-08T13:17:49;3.25;3.25;2.00
69349;PMS5003;64554;43.452;4.934;2024-03-08T13:20:16;5.00;3.50;2.00
69349;PMS5003;64554;43.452;4.934;2024-03-08T13:22:56;3.40;3.40;2.00
69349;PMS5003;64554;43.452;4.934;2024-03-08T13:25:23;2.00;2.00;1.20
69349;PMS5003;64554;43.452;4.934;2024-03-08T13:27:50;3.00;2.00;1.50
69349;PMS5003;64554;43.452;4.934;2024-03-08T13:30:17;2.00;2.00;0.75
69349;PMS5003;64554;43.452;4.934;2024-03-08T13:32:44;2.00;2.00;1.00
69349;PMS5003;64554;43.452;4.934;2024-03-08T13:35:11;1.00;1.00;0.75
69349;PMS5003;64554;43.452;4.934;2024-03-08T13:37:42;2.00;2.00;1.40
69349;PMS5003;64554;43.452;4.934;2024-03-08T13:40:09;1.60;1.60;0.60
69349;PMS5003;64554;43.452;4.934;2024-03-08T13:42:40;2.00;2.00;1.25
69349;PMS5003;64554;43.452;4.934;2024-03-08T13:45:09;3.00;3.00;2.00
69349;PMS5003;64554;43.452;4.934;2024-03-08T13:47:39;3.00;3.00;1.00
69349;PMS5003;64554;43.452;4.934;2024-03-08T13:50:06;3.00;3.00;1.00
69349;PMS5003;64554;43.452;4.934;2024-03-08T13:52:33;3.00;2.00;1.00
69349;PMS5003;64554;43.452;4.934;2024-03-08T13:55:01;1.00;1.00;1.00
69349;PMS5003;64554;43.452;4.934;2024-03-08T13:57:27;4.20;2.40;0.40
69349;PMS5003;64554;43.452;4.934;2024-03-08T13:59:54;3.00;3.00;1.00
69349;PMS5003;64554;43.452;4.934;2024-03-08T14:02:21;2.50;2.50;1.50
69349;PMS5003;64554;43.452;4.934;2024-03-08T14:04:49;4.80;2.80;2.00
69349;PMS5003;64554;43.452;4.934;2024-03-08T14:07:16;2.50;2.50;1.50
69349;PMS5003;64554;43.452;4.934;2024-03-08T14:09:42;4.00;3.00;1.00
69349;PMS5003;64554;43.452;4.934;2024-03-08T14:12:09;4.75;3.75;3.00
69349;PMS5003;64554;43.452;4.934;2024-03-08T14:14:36;2.00;2.00;1.00
69349;PMS5003;64554;43.452;4.934;2024-03-08T14:17:03;3.00;3.00;2.00
69349;PMS5003;64554;43.452;4.934;2024-03-08T14:19:30;0.80;0.80;0.60
69349;PMS5003;64554;43.452;4.934;2024-03-08T14:21:57;2.00;2.00;1.00
69349;PMS5003;64554;43.452;4.934;2024-03-08T14:24:25;4.00;3.00;2.00
69349;PMS5003;64554;43.452;4.934;2024-03-08T14:26:52;3.00;3.00;2.00
69349;PMS5003;64554;43.452;4.934;2024-03-08T14:29:19;3.00;3.00;2.00
69349;PMS5003;64554;43.452;4.934;2024-03-08T14:31:45;3.50;2.50;1.50
69349;PMS5003;64554;43.452;4.934;2024-03-08T14:34:12;11.60;9.80;5.60